sensor_id;sensor_type;location;lat;lon;timestamp;P1;durP1;ratioP1;P2;durP2;ratioP2
50789;SDS011;37287;47.554;7.844;2023-11-21T00:00:37;2.15;;;1.05;;
50789;SDS011;37287;47.554;7.844;2023-11-21T00:03:04;1.83;;;0.90;;
50789;SDS011;37287;47.554;7.844;2023-11-21T00:05:31;2.20;;;0.90;;
50789;SDS011;37287;47.554;7.844;2023-11-21T00:07:57;2.97;;;0.88;;
50789;SDS011;37287;47.554;7.844;2023-11-21T00:10:27;2.40;;;1.00;;
50789;SDS011;37287;47.554;7.844;2023-11-21T00:12:54;3.20;;;1.13;;
50789;SDS011;37287;47.554;7.844;2023-11-21T00:15:21;4.38;;;0.82;;
50789;SDS011;37287;47.554;7.844;2023-11-21T00:17:48;2.03;;;0.98;;
50789;SDS011;37287;47.554;7.844;2023-11-21T00:20:17;4.50;;;0.90;;
50789;SDS011;37287;47.554;7.844;2023-11-21T00:22:46;2.70;;;0.93;;
50789;SDS011;37287;47.554;7.844;2023-11-21T00:25:14;2.47;;;0.98;;
50789;SDS011;37287;47.554;7.844;2023-11-21T00:27:42;2.28;;;1.02;;
50789;SDS011;37287;47.554;7.844;2023-11-21T00:30:15;1.42;;;0.88;;
50789;SDS011;37287;47.554;7.844;2023-11-21T00:32:41;2.95;;;1.08;;
50789;SDS011;37287;47.554;7.844;2023-11-21T00:35:08;4.10;;;1.20;;
50789;SDS011;37287;47.554;7.844;2023-11-21T00:37:36;2.58;;;1.05;;
50789;SDS011;37287;47.554;7.844;2023-11-21T00:40:05;4.80;;;0.85;;
50789;SDS011;37287;47.554;7.844;2023-11-21T00:42:36;2.55;;;0.82;;
50789;SDS011;37287;47.554;7.844;2023-11-21T00:45:05;1.92;;;0.95;;
50789;SDS011;37287;47.554;7.844;2023-11-21T00:47:32;1.52;;;0.93;;
50789;SDS011;37287;47.554;7.844;2023-11-21T00:49:59;2.70;;;0.90;;
50789;SDS011;37287;47.554;7.844;2023-11-21T00:52:30;3.25;;;1.00;;
50789;SDS011;37287;47.554;7.844;2023-11-21T00:54:57;2.78;;;1.13;;
50789;SDS011;37287;47.554;7.844;2023-11-21T00:57:26;4.28;;;0.90;;
50789;SDS011;37287;47.554;7.844;2023-11-21T00:59:54;1.95;;;0.88;;
50789;SDS011;37287;47.554;7.844;2023-11-21T01:02:21;2.40;;;0.95;;
50789;SDS011;37287;47.554;7.844;2023-11-21T01:04:48;3.17;;;1.30;;
50789;SDS011;37287;47.554;7.844;2023-11-21T01:07:15;1.90;;;0.80;;
50789;SDS011;37287;47.554;7.844;2023-11-21T01:09:41;2.28;;;1.05;;
50789;SDS011;37287;47.554;7.844;2023-11-21T01:12:10;1.55;;;0.93;;
50789;SDS011;37287;47.554;7.844;2023-11-21T01:14:39;2.88;;;1.00;;
50789;SDS011;37287;47.554;7.844;2023-11-21T01:17:06;2.65;;;0.90;;
50789;SDS011;37287;47.554;7.844;2023-11-21T01:19:33;1.70;;;0.90;;
50789;SDS011;37287;47.554;7.844;2023-11-21T01:22:02;2.38;;;1.00;;
50789;SDS011;37287;47.554;7.844;2023-11-21T01:24:30;1.35;;;0.82;;
50789;SDS011;37287;47.554;7.844;2023-11-21T01:26:56;3.20;;;1.13;;
50789;SDS011;37287;47.554;7.844;2023-11-21T01:29:25;2.92;;;1.35;;
50789;SDS011;37287;47.554;7.844;2023-11-21T01:31:51;3.28;;;1.00;;
50789;SDS011;37287;47.554;7.844;2023-11-21T01:34:18;2.05;;;0.80;;
50789;SDS011;37287;47.554;7.844;2023-11-21T01:36:51;3.92;;;1.10;;
50789;SDS011;37287;47.554;7.844;2023-11-21T01:39:18;2.35;;;0.93;;
50789;SDS011;37287;47.554;7.844;2023-11-21T01:41:50;7.00;;;1.00;;
50789;SDS011;37287;47.554;7.844;2023-11-21T01:44:18;4.72;;;0.95;;
50789;SDS011;37287;47.554;7.844;2023-11-21T01:46:45;3.42;;;1.23;;
50789;SDS011;37287;47.554;7.844;2023-11-21T01:49:16;3.53;;;1.23;;
50789;SDS011;37287;47.554;7.844;2023-11-21T01:51:49;2.03;;;0.90;;
50789;SDS011;37287;47.554;7.844;2023-11-21T01:54:18;2.92;;;0.80;;
50789;SDS011;37287;47.554;7.844;2023-11-21T01:56:47;3.70;;;0.95;;
50789;SDS011;37287;47.554;7.844;2023-11-21T01:59:20;2.85;;;0.98;;
50789;SDS011;37287;47.554;7.844;2023-11-21T02:01:48;2.00;;;0.70;;
50789;SDS011;37287;47.554;7.844;2023-11-21T02:04:17;1.67;;;0.90;;
50789;SDS011;37287;47.554;7.844;2023-11-21T02:06:44;2.05;;;0.80;;
50789;SDS011;37287;47.554;7.844;2023-11-21T02:09:11;3.47;;;1.00;;
50789;SDS011;37287;47.554;7.844;2023-11-21T02:11:41;1.77;;;0.95;;
50789;SDS011;37287;47.554;7.844;2023-11-21T02:14:08;1.63;;;0.80;;
50789;SDS011;37287;47.554;7.844;2023-11-21T02:16:40;1.63;;;0.80;;
50789;SDS011;37287;47.554;7.844;2023-11-21T02:19:08;1.35;;;0.75;;
50789;SDS011;37287;47.554;7.844;2023-11-21T02:21:42;1.00;;;0.70;;
50789;SDS011;37287;47.554;7.844;2023-11-21T02:24:10;3.03;;;0.75;;
50789;SDS011;37287;47.554;7.844;2023-11-21T02:26:39;2.22;;;0.80;;
50789;SDS011;37287;47.554;7.844;2023-11-21T02:29:09;0.65;;;0.55;;
50789;SDS011;37287;47.554;7.844;2023-11-21T02:31:38;1.95;;;0.80;;
50789;SDS011;37287;47.554;7.844;2023-11-21T02:34:16;0.85;;;0.68;;
50789;SDS011;37287;47.554;7.844;2023-11-21T02:36:44;2.33;;;0.68;;
50789;SDS011;37287;47.554;7.844;2023-11-21T02:39:10;1.38;;;0.47;;
50789;SDS011;37287;47.554;7.844;2023-11-21T02:41:38;2.35;;;0.80;;
50789;SDS011;37287;47.554;7.844;2023-11-21T02:44:05;1.85;;;0.82;;
50789;SDS011;37287;47.554;7.844;2023-11-21T02:46:33;0.68;;;0.50;;
50789;SDS011;37287;47.554;7.844;2023-11-21T02:49:02;2.15;;;0.60;;
50789;SDS011;37287;47.554;7.844;2023-11-21T02:51:30;1.65;;;0.68;;
50789;SDS011;37287;47.554;7.844;2023-11-21T02:53:56;1.05;;;0.68;;
50789;SDS011;37287;47.554;7.844;2023-11-21T02:56:27;2.05;;;0.60;;
50789;SDS011;37287;47.554;7.844;2023-11-21T02:58:58;1.55;;;0.52;;
50789;SDS011;37287;47.554;7.844;2023-11-21T03:01:26;0.63;;;0.40;;
50789;SDS011;37287;47.554;7.844;2023-11-21T03:03:54;1.38;;;0.73;;
50789;SDS011;37287;47.554;7.844;2023-11-21T03:06:22;0.88;;;0.50;;
50789;SDS011;37287;47.554;7.844;2023-11-21T03:08:49;2.25;;;0.63;;
50789;SDS011;37287;47.554;7.844;2023-11-21T03:11:27;1.38;;;0.65;;
50789;SDS011;37287;47.554;7.844;2023-11-21T03:13:53;0.45;;;0.45;;
50789;SDS011;37287;47.554;7.844;2023-11-21T03:16:20;0.70;;;0.57;;
50789;SDS011;37287;47.554;7.844;2023-11-21T03:18:48;2.17;;;0.80;;
50789;SDS011;37287;47.554;7.844;2023-11-21T03:21:15;0.88;;;0.40;;
50789;SDS011;37287;47.554;7.844;2023-11-21T03:23:42;2.35;;;0.80;;
50789;SDS011;37287;47.554;7.844;2023-11-21T03:26:11;0.47;;;0.47;;
50789;SDS011;37287;47.554;7.844;2023-11-21T03:28:39;1.88;;;0.73;;
50789;SDS011;37287;47.554;7.844;2023-11-21T03:31:06;1.83;;;0.63;;
50789;SDS011;37287;47.554;7.844;2023-11-21T03:33:35;1.60;;;0.80;;
50789;SDS011;37287;47.554;7.844;2023-11-21T03:36:01;2.63;;;0.75;;
50789;SDS011;37287;47.554;7.844;2023-11-21T03:38:30;3.63;;;0.80;;
50789;SDS011;37287;47.554;7.844;2023-11-21T03:40:56;0.80;;;0.73;;
50789;SDS011;37287;47.554;7.844;2023-11-21T03:43:23;1.67;;;0.70;;
50789;SDS011;37287;47.554;7.844;2023-11-21T03:45:51;3.05;;;0.98;;
50789;SDS011;37287;47.554;7.844;2023-11-21T03:48:17;1.27;;;0.73;;
50789;SDS011;37287;47.554;7.844;2023-11-21T03:50:44;3.33;;;1.00;;
50789;SDS011;37287;47.554;7.844;2023-11-21T03:53:12;1.55;;;0.75;;
50789;SDS011;37287;47.554;7.844;2023-11-21T03:55:45;1.85;;;0.70;;
50789;SDS011;37287;47.554;7.844;2023-11-21T03:58:12;0.73;;;0.63;;
50789;SDS011;37287;47.554;7.844;2023-11-21T04:00:39;1.42;;;0.70;;
50789;SDS011;37287;47.554;7.844;2023-11-21T04:03:07;2.05;;;0.50;;
50789;SDS011;37287;47.554;7.844;2023-11-21T04:05:34;2.15;;;0.60;;
50789;SDS011;37287;47.554;7.844;2023-11-21T04:08:00;0.93;;;0.60;;
50789;SDS011;37287;47.554;7.844;2023-11-21T04:10:29;2.67;;;0.68;;
50789;SDS011;37287;47.554;7.844;2023-11-21T04:12:56;1.67;;;0.65;;
50789;SDS011;37287;47.554;7.844;2023-11-21T04:15:22;1.55;;;0.57;;
50789;SDS011;37287;47.554;7.844;2023-11-21T04:17:53;1.23;;;0.80;;
50789;SDS011;37287;47.554;7.844;2023-11-21T04:20:20;1.42;;;0.70;;
50789;SDS011;37287;47.554;7.844;2023-11-21T04:22:49;4.47;;;0.60;;
50789;SDS011;37287;47.554;7.844;2023-11-21T04:25:17;1.05;;;0.60;;
50789;SDS011;37287;47.554;7.844;2023-11-21T04:27:44;1.02;;;0.50;;
50789;SDS011;37287;47.554;7.844;2023-11-21T04:30:12;1.48;;;0.75;;
50789;SDS011;37287;47.554;7.844;2023-11-21T04:32:40;1.20;;;0.45;;
50789;SDS011;37287;47.554;7.844;2023-11-21T04:35:08;0.63;;;0.50;;
50789;SDS011;37287;47.554;7.844;2023-11-21T04:37:35;0.70;;;0.55;;
50789;SDS011;37287;47.554;7.844;2023-11-21T04:40:04;0.90;;;0.47;;
50789;SDS011;37287;47.554;7.844;2023-11-21T04:42:36;0.50;;;0.40;;
50789;SDS011;37287;47.554;7.844;2023-11-21T04:45:04;0.88;;;0.52;;
50789;SDS011;37287;47.554;7.844;2023-11-21T04:47:37;0.30;;;0.30;;
50789;SDS011;37287;47.554;7.844;2023-11-21T04:50:04;0.85;;;0.40;;
50789;SDS011;37287;47.554;7.844;2023-11-21T04:52:32;2.40;;;0.65;;
50789;SDS011;37287;47.554;7.844;2023-11-21T04:55:12;2.20;;;0.75;;
50789;SDS011;37287;47.554;7.844;2023-11-21T04:57:39;0.90;;;0.60;;
50789;SDS011;37287;47.554;7.844;2023-11-21T05:00:09;0.90;;;0.77;;
50789;SDS011;37287;47.554;7.844;2023-11-21T05:02:39;1.73;;;0.68;;
50789;SDS011;37287;47.554;7.844;2023-11-21T05:05:08;0.70;;;0.63;;
50789;SDS011;37287;47.554;7.844;2023-11-21T05:07:36;0.82;;;0.60;;
50789;SDS011;37287;47.554;7.844;2023-11-21T05:10:07;0.85;;;0.70;;
50789;SDS011;37287;47.554;7.844;2023-11-21T05:12:37;0.65;;;0.60;;
50789;SDS011;37287;47.554;7.844;2023-11-21T05:15:12;1.48;;;0.80;;
50789;SDS011;37287;47.554;7.844;2023-11-21T05:17:41;1.42;;;0.68;;
50789;SDS011;37287;47.554;7.844;2023-11-21T05:20:14;1.17;;;0.82;;
50789;SDS011;37287;47.554;7.844;2023-11-21T05:22:45;0.77;;;0.65;;
50789;SDS011;37287;47.554;7.844;2023-11-21T05:25:15;1.33;;;0.80;;
50789;SDS011;37287;47.554;7.844;2023-11-21T05:27:46;1.33;;;0.90;;
50789;SDS011;37287;47.554;7.844;2023-11-21T05:30:19;2.88;;;0.80;;
50789;SDS011;37287;47.554;7.844;2023-11-21T05:32:46;2.28;;;0.90;;
50789;SDS011;37287;47.554;7.844;2023-11-21T05:35:16;5.38;;;0.90;;
50789;SDS011;37287;47.554;7.844;2023-11-21T05:37:45;0.75;;;0.75;;
50789;SDS011;37287;47.554;7.844;2023-11-21T05:40:12;2.83;;;0.95;;
50789;SDS011;37287;47.554;7.844;2023-11-21T05:42:39;2.38;;;1.10;;
50789;SDS011;37287;47.554;7.844;2023-11-21T05:45:09;1.98;;;1.23;;
50789;SDS011;37287;47.554;7.844;2023-11-21T05:47:45;1.20;;;1.05;;
50789;SDS011;37287;47.554;7.844;2023-11-21T05:50:15;2.67;;;1.10;;
50789;SDS011;37287;47.554;7.844;2023-11-21T05:52:44;1.00;;;0.95;;
50789;SDS011;37287;47.554;7.844;2023-11-21T05:55:13;2.53;;;1.13;;
50789;SDS011;37287;47.554;7.844;2023-11-21T05:57:41;2.03;;;1.10;;
50789;SDS011;37287;47.554;7.844;2023-11-21T06:00:10;4.25;;;1.27;;
50789;SDS011;37287;47.554;7.844;2023-11-21T06:02:52;2.05;;;1.00;;
50789;SDS011;37287;47.554;7.844;2023-11-21T06:05:22;1.45;;;1.13;;
50789;SDS011;37287;47.554;7.844;2023-11-21T06:07:55;0.80;;;0.80;;
50789;SDS011;37287;47.554;7.844;2023-11-21T06:10:25;1.30;;;0.80;;
50789;SDS011;37287;47.554;7.844;2023-11-21T06:12:55;1.13;;;0.95;;
50789;SDS011;37287;47.554;7.844;2023-11-21T06:15:28;1.08;;;0.98;;
50789;SDS011;37287;47.554;7.844;2023-11-21T06:17:57;1.58;;;1.42;;
50789;SDS011;37287;47.554;7.844;2023-11-21T06:20:25;1.40;;;0.95;;
50789;SDS011;37287;47.554;7.844;2023-11-21T06:22:51;1.60;;;1.30;;
50789;SDS011;37287;47.554;7.844;2023-11-21T06:25:18;2.58;;;1.20;;
50789;SDS011;37287;47.554;7.844;2023-11-21T06:27:46;2.25;;;1.30;;
50789;SDS011;37287;47.554;7.844;2023-11-21T06:30:19;1.27;;;1.23;;
50789;SDS011;37287;47.554;7.844;2023-11-21T06:32:46;3.70;;;1.42;;
50789;SDS011;37287;47.554;7.844;2023-11-21T06:35:14;4.10;;;1.70;;
50789;SDS011;37287;47.554;7.844;2023-11-21T06:37:43;3.55;;;1.50;;
50789;SDS011;37287;47.554;7.844;2023-11-21T06:40:18;2.03;;;1.60;;
50789;SDS011;37287;47.554;7.844;2023-11-21T06:42:47;1.70;;;1.60;;
50789;SDS011;37287;47.554;7.844;2023-11-21T06:45:15;2.30;;;1.83;;
50789;SDS011;37287;47.554;7.844;2023-11-21T06:47:42;2.50;;;1.55;;
50789;SDS011;37287;47.554;7.844;2023-11-21T06:50:11;1.80;;;1.50;;
50789;SDS011;37287;47.554;7.844;2023-11-21T06:52:38;3.35;;;1.80;;
50789;SDS011;37287;47.554;7.844;2023-11-21T06:55:09;2.17;;;1.67;;
50789;SDS011;37287;47.554;7.844;2023-11-21T06:57:37;1.40;;;1.30;;
50789;SDS011;37287;47.554;7.844;2023-11-21T07:00:05;1.95;;;1.58;;
50789;SDS011;37287;47.554;7.844;2023-11-21T07:02:35;2.72;;;1.70;;
50789;SDS011;37287;47.554;7.844;2023-11-21T07:05:05;2.80;;;1.50;;
50789;SDS011;37287;47.554;7.844;2023-11-21T07:07:32;2.28;;;1.40;;
50789;SDS011;37287;47.554;7.844;2023-11-21T07:10:02;2.38;;;1.40;;
50789;SDS011;37287;47.554;7.844;2023-11-21T07:12:30;3.08;;;1.80;;
50789;SDS011;37287;47.554;7.844;2023-11-21T07:14:57;2.47;;;1.50;;
50789;SDS011;37287;47.554;7.844;2023-11-21T07:17:29;2.55;;;1.30;;
50789;SDS011;37287;47.554;7.844;2023-11-21T07:19:57;1.40;;;1.30;;
50789;SDS011;37287;47.554;7.844;2023-11-21T07:22:24;2.85;;;1.40;;
50789;SDS011;37287;47.554;7.844;2023-11-21T07:24:51;1.95;;;1.30;;
50789;SDS011;37287;47.554;7.844;2023-11-21T07:27:18;1.95;;;1.33;;
50789;SDS011;37287;47.554;7.844;2023-11-21T07:29:45;2.80;;;1.45;;
50789;SDS011;37287;47.554;7.844;2023-11-21T07:32:11;2.45;;;1.45;;
50789;SDS011;37287;47.554;7.844;2023-11-21T07:34:41;3.05;;;1.35;;
50789;SDS011;37287;47.554;7.844;2023-11-21T07:37:08;2.05;;;1.45;;
50789;SDS011;37287;47.554;7.844;2023-11-21T07:39:37;1.67;;;1.25;;
50789;SDS011;37287;47.554;7.844;2023-11-21T07:42:10;2.35;;;1.42;;
50789;SDS011;37287;47.554;7.844;2023-11-21T07:44:37;2.42;;;1.80;;
50789;SDS011;37287;47.554;7.844;2023-11-21T07:47:03;2.70;;;1.90;;
50789;SDS011;37287;47.554;7.844;2023-11-21T07:49:33;2.90;;;2.17;;
50789;SDS011;37287;47.554;7.844;2023-11-21T07:51:59;2.42;;;1.85;;
50789;SDS011;37287;47.554;7.844;2023-11-21T07:54:28;4.75;;;2.30;;
50789;SDS011;37287;47.554;7.844;2023-11-21T07:56:54;2.97;;;2.33;;
50789;SDS011;37287;47.554;7.844;2023-11-21T07:59:21;5.10;;;2.72;;
50789;SDS011;37287;47.554;7.844;2023-11-21T08:01:48;4.80;;;2.88;;
50789;SDS011;37287;47.554;7.844;2023-11-21T08:04:14;10.60;;;2.67;;
50789;SDS011;37287;47.554;7.844;2023-11-21T08:06:45;3.20;;;2.60;;
50789;SDS011;37287;47.554;7.844;2023-11-21T08:09:12;6.28;;;2.30;;
50789;SDS011;37287;47.554;7.844;2023-11-21T08:11:40;2.30;;;1.95;;
50789;SDS011;37287;47.554;7.844;2023-11-21T08:14:07;1.83;;;1.70;;
50789;SDS011;37287;47.554;7.844;2023-11-21T08:16:33;1.88;;;1.48;;
50789;SDS011;37287;47.554;7.844;2023-11-21T08:19:04;2.45;;;1.50;;
50789;SDS011;37287;47.554;7.844;2023-11-21T08:21:35;2.80;;;1.40;;
50789;SDS011;37287;47.554;7.844;2023-11-21T08:24:03;1.70;;;1.60;;
50789;SDS011;37287;47.554;7.844;2023-11-21T08:26:31;1.90;;;1.60;;
50789;SDS011;37287;47.554;7.844;2023-11-21T08:28:58;2.85;;;2.00;;
50789;SDS011;37287;47.554;7.844;2023-11-21T08:31:25;2.85;;;1.92;;
50789;SDS011;37287;47.554;7.844;2023-11-21T08:33:56;4.35;;;2.20;;
50789;SDS011;37287;47.554;7.844;2023-11-21T08:36:23;2.92;;;2.10;;
50789;SDS011;37287;47.554;7.844;2023-11-21T08:38:50;4.88;;;2.22;;
50789;SDS011;37287;47.554;7.844;2023-11-21T08:41:22;7.88;;;2.40;;
50789;SDS011;37287;47.554;7.844;2023-11-21T08:43:52;5.13;;;1.73;;
50789;SDS011;37287;47.554;7.844;2023-11-21T08:46:20;2.15;;;1.95;;
50789;SDS011;37287;47.554;7.844;2023-11-21T08:48:48;2.55;;;1.90;;
50789;SDS011;37287;47.554;7.844;2023-11-21T08:51:15;2.20;;;1.90;;
50789;SDS011;37287;47.554;7.844;2023-11-21T08:53:42;3.10;;;1.80;;
50789;SDS011;37287;47.554;7.844;2023-11-21T08:56:14;3.67;;;1.63;;
50789;SDS011;37287;47.554;7.844;2023-11-21T08:58:43;1.60;;;1.50;;
50789;SDS011;37287;47.554;7.844;2023-11-21T09:01:09;2.83;;;1.70;;
50789;SDS011;37287;47.554;7.844;2023-11-21T09:03:36;1.70;;;1.60;;
50789;SDS011;37287;47.554;7.844;2023-11-21T09:06:03;2.75;;;1.65;;
50789;SDS011;37287;47.554;7.844;2023-11-21T09:08:54;2.35;;;1.63;;
50789;SDS011;37287;47.554;7.844;2023-11-21T09:11:23;1.40;;;1.30;;
50789;SDS011;37287;47.554;7.844;2023-11-21T09:13:51;1.67;;;1.40;;
50789;SDS011;37287;47.554;7.844;2023-11-21T09:16:18;1.20;;;1.02;;
50789;SDS011;37287;47.554;7.844;2023-11-21T09:18:44;1.10;;;1.00;;
50789;SDS011;37287;47.554;7.844;2023-11-21T09:21:13;1.52;;;1.10;;
50789;SDS011;37287;47.554;7.844;2023-11-21T09:23:40;0.90;;;0.90;;
50789;SDS011;37287;47.554;7.844;2023-11-21T09:26:09;1.40;;;0.88;;
50789;SDS011;37287;47.554;7.844;2023-11-21T09:28:36;0.80;;;0.63;;
50789;SDS011;37287;47.554;7.844;2023-11-21T09:31:04;0.85;;;0.60;;
50789;SDS011;37287;47.554;7.844;2023-11-21T09:33:35;1.23;;;0.70;;
50789;SDS011;37287;47.554;7.844;2023-11-21T09:36:02;0.63;;;0.63;;
50789;SDS011;37287;47.554;7.844;2023-11-21T09:38:31;1.08;;;0.73;;
50789;SDS011;37287;47.554;7.844;2023-11-21T09:40:57;0.60;;;0.60;;
50789;SDS011;37287;47.554;7.844;2023-11-21T09:43:25;0.60;;;0.60;;
50789;SDS011;37287;47.554;7.844;2023-11-21T09:45:56;0.65;;;0.60;;
50789;SDS011;37287;47.554;7.844;2023-11-21T09:48:27;1.25;;;0.75;;
50789;SDS011;37287;47.554;7.844;2023-11-21T09:50:57;0.50;;;0.50;;
50789;SDS011;37287;47.554;7.844;2023-11-21T09:53:26;0.63;;;0.63;;
50789;SDS011;37287;47.554;7.844;2023-11-21T09:55:59;0.65;;;0.60;;
50789;SDS011;37287;47.554;7.844;2023-11-21T09:58:53;0.70;;;0.70;;
50789;SDS011;37287;47.554;7.844;2023-11-21T10:01:20;0.80;;;0.80;;
50789;SDS011;37287;47.554;7.844;2023-11-21T10:03:50;1.58;;;1.00;;
50789;SDS011;37287;47.554;7.844;2023-11-21T10:06:17;1.33;;;1.00;;
50789;SDS011;37287;47.554;7.844;2023-11-21T10:08:46;0.90;;;0.90;;
50789;SDS011;37287;47.554;7.844;2023-11-21T10:11:21;2.27;;;1.00;;
50789;SDS011;37287;47.554;7.844;2023-11-21T10:13:52;1.08;;;0.60;;
50789;SDS011;37287;47.554;7.844;2023-11-21T10:16:21;0.40;;;0.40;;
50789;SDS011;37287;47.554;7.844;2023-11-21T10:18:52;4.03;;;0.70;;
50789;SDS011;37287;47.554;7.844;2023-11-21T10:21:37;1.48;;;0.63;;
50789;SDS011;37287;47.554;7.844;2023-11-21T10:24:05;1.38;;;0.80;;
50789;SDS011;37287;47.554;7.844;2023-11-21T10:26:32;1.27;;;0.70;;
50789;SDS011;37287;47.554;7.844;2023-11-21T10:29:16;0.68;;;0.40;;
50789;SDS011;37287;47.554;7.844;2023-11-21T10:31:45;1.58;;;0.60;;
50789;SDS011;37287;47.554;7.844;2023-11-21T10:34:17;0.50;;;0.40;;
50789;SDS011;37287;47.554;7.844;2023-11-21T10:36:45;0.52;;;0.52;;
50789;SDS011;37287;47.554;7.844;2023-11-21T10:39:18;0.70;;;0.70;;
50789;SDS011;37287;47.554;7.844;2023-11-21T10:41:47;1.02;;;0.80;;
50789;SDS011;37287;47.554;7.844;2023-11-21T10:44:14;1.40;;;1.30;;
50789;SDS011;37287;47.554;7.844;2023-11-21T10:46:51;1.20;;;1.10;;
50789;SDS011;37287;47.554;7.844;2023-11-21T10:49:20;1.48;;;1.30;;
50789;SDS011;37287;47.554;7.844;2023-11-21T10:51:56;1.83;;;1.23;;
50789;SDS011;37287;47.554;7.844;2023-11-21T10:54:23;1.55;;;1.00;;
50789;SDS011;37287;47.554;7.844;2023-11-21T10:56:58;0.90;;;0.90;;
50789;SDS011;37287;47.554;7.844;2023-11-21T11:01:59;1.10;;;0.95;;
50789;SDS011;37287;47.554;7.844;2023-11-21T11:04:34;0.80;;;0.80;;
50789;SDS011;37287;47.554;7.844;2023-11-21T11:07:04;1.42;;;0.73;;
50789;SDS011;37287;47.554;7.844;2023-11-21T11:09:35;0.90;;;0.88;;
50789;SDS011;37287;47.554;7.844;2023-11-21T11:12:05;1.00;;;0.90;;
50789;SDS011;37287;47.554;7.844;2023-11-21T11:14:32;1.23;;;0.90;;
50789;SDS011;37287;47.554;7.844;2023-11-21T11:17:01;1.23;;;1.00;;
50789;SDS011;37287;47.554;7.844;2023-11-21T11:19:30;1.52;;;0.93;;
50789;SDS011;37287;47.554;7.844;2023-11-21T11:27:40;2.42;;;1.00;;
50789;SDS011;37287;47.554;7.844;2023-11-21T11:30:28;1.88;;;1.30;;
50789;SDS011;37287;47.554;7.844;2023-11-21T11:33:25;1.95;;;1.20;;
50789;SDS011;37287;47.554;7.844;2023-11-21T11:36:03;1.13;;;1.00;;
50789;SDS011;37287;47.554;7.844;2023-11-21T11:38:31;1.08;;;0.90;;
50789;SDS011;37287;47.554;7.844;2023-11-21T11:41:04;1.20;;;0.90;;
50789;SDS011;37287;47.554;7.844;2023-11-21T11:43:33;1.52;;;1.10;;
50789;SDS011;37287;47.554;7.844;2023-11-21T11:46:11;1.58;;;1.23;;
50789;SDS011;37287;47.554;7.844;2023-11-21T11:48:41;0.80;;;0.80;;
50789;SDS011;37287;47.554;7.844;2023-11-21T11:51:11;2.45;;;1.48;;
50789;SDS011;37287;47.554;7.844;2023-11-21T11:53:45;1.98;;;1.40;;
50789;SDS011;37287;47.554;7.844;2023-11-21T11:56:21;1.83;;;1.33;;
50789;SDS011;37287;47.554;7.844;2023-11-21T11:58:51;1.52;;;0.80;;
50789;SDS011;37287;47.554;7.844;2023-11-21T12:01:22;1.05;;;0.90;;
50789;SDS011;37287;47.554;7.844;2023-11-21T12:04:37;1.70;;;0.93;;
50789;SDS011;37287;47.554;7.844;2023-11-21T12:06:43;1.10;;;1.00;;
50789;SDS011;37287;47.554;7.844;2023-11-21T12:09:12;0.75;;;0.73;;
50789;SDS011;37287;47.554;7.844;2023-11-21T12:11:45;0.75;;;0.70;;
50789;SDS011;37287;47.554;7.844;2023-11-21T12:14:14;0.75;;;0.75;;
50789;SDS011;37287;47.554;7.844;2023-11-21T12:16:42;1.45;;;0.98;;
50789;SDS011;37287;47.554;7.844;2023-11-21T12:19:12;1.55;;;0.95;;
50789;SDS011;37287;47.554;7.844;2023-11-21T12:21:39;0.90;;;0.90;;
50789;SDS011;37287;47.554;7.844;2023-11-21T12:24:08;1.23;;;1.05;;
50789;SDS011;37287;47.554;7.844;2023-11-21T12:26:35;0.90;;;0.90;;
50789;SDS011;37287;47.554;7.844;2023-11-21T12:29:02;1.05;;;0.77;;
50789;SDS011;37287;47.554;7.844;2023-11-21T12:31:30;1.73;;;0.90;;
50789;SDS011;37287;47.554;7.844;2023-11-21T12:33:59;1.23;;;1.10;;
50789;SDS011;37287;47.554;7.844;2023-11-21T12:36:26;1.15;;;1.00;;
50789;SDS011;37287;47.554;7.844;2023-11-21T12:38:55;1.17;;;0.90;;
50789;SDS011;37287;47.554;7.844;2023-11-21T12:41:24;1.15;;;1.05;;
50789;SDS011;37287;47.554;7.844;2023-11-21T12:43:50;2.25;;;1.23;;
50789;SDS011;37287;47.554;7.844;2023-11-21T12:46:17;1.58;;;1.20;;
50789;SDS011;37287;47.554;7.844;2023-11-21T12:48:44;1.33;;;1.20;;
50789;SDS011;37287;47.554;7.844;2023-11-21T12:51:14;0.95;;;0.95;;
50789;SDS011;37287;47.554;7.844;2023-11-21T12:53:42;1.40;;;1.20;;
50789;SDS011;37287;47.554;7.844;2023-11-21T12:56:10;1.75;;;1.15;;
50789;SDS011;37287;47.554;7.844;2023-11-21T12:58:37;1.52;;;1.40;;
50789;SDS011;37287;47.554;7.844;2023-11-21T13:01:06;1.98;;;1.30;;
50789;SDS011;37287;47.554;7.844;2023-11-21T13:03:38;1.45;;;1.00;;
50789;SDS011;37287;47.554;7.844;2023-11-21T13:06:07;1.58;;;1.20;;
50789;SDS011;37287;47.554;7.844;2023-11-21T13:08:36;1.48;;;1.13;;
50789;SDS011;37287;47.554;7.844;2023-11-21T13:11:07;1.20;;;1.20;;
50789;SDS011;37287;47.554;7.844;2023-11-21T13:13:35;2.10;;;0.82;;
50789;SDS011;37287;47.554;7.844;2023-11-21T13:16:02;1.92;;;1.00;;
50789;SDS011;37287;47.554;7.844;2023-11-21T13:18:32;1.25;;;1.15;;
50789;SDS011;37287;47.554;7.844;2023-11-21T13:21:00;2.30;;;1.00;;
50789;SDS011;37287;47.554;7.844;2023-11-21T13:23:34;1.55;;;1.10;;
50789;SDS011;37287;47.554;7.844;2023-11-21T13:26:02;0.88;;;0.88;;
50789;SDS011;37287;47.554;7.844;2023-11-21T13:28:33;1.08;;;0.80;;
50789;SDS011;37287;47.554;7.844;2023-11-21T13:31:00;2.78;;;0.90;;
50789;SDS011;37287;47.554;7.844;2023-11-21T13:33:37;1.17;;;1.00;;
50789;SDS011;37287;47.554;7.844;2023-11-21T13:36:05;1.27;;;0.90;;
50789;SDS011;37287;47.554;7.844;2023-11-21T13:38:34;1.00;;;0.90;;
50789;SDS011;37287;47.554;7.844;2023-11-21T13:41:04;1.92;;;0.93;;
50789;SDS011;37287;47.554;7.844;2023-11-21T13:43:34;1.75;;;1.02;;
50789;SDS011;37287;47.554;7.844;2023-11-21T13:46:00;1.30;;;1.17;;
50789;SDS011;37287;47.554;7.844;2023-11-21T13:48:39;1.02;;;0.80;;
50789;SDS011;37287;47.554;7.844;2023-11-21T13:51:13;1.20;;;1.10;;
50789;SDS011;37287;47.554;7.844;2023-11-21T13:53:47;2.72;;;1.20;;
50789;SDS011;37287;47.554;7.844;2023-11-21T13:56:17;1.42;;;0.98;;
50789;SDS011;37287;47.554;7.844;2023-11-21T13:58:51;1.98;;;1.10;;
50789;SDS011;37287;47.554;7.844;2023-11-21T14:01:23;1.92;;;1.00;;
50789;SDS011;37287;47.554;7.844;2023-11-21T14:04:00;2.13;;;1.15;;
50789;SDS011;37287;47.554;7.844;2023-11-21T14:06:48;1.13;;;0.95;;
50789;SDS011;37287;47.554;7.844;2023-11-21T14:09:23;2.35;;;1.05;;
50789;SDS011;37287;47.554;7.844;2023-11-21T14:11:59;1.77;;;1.20;;
50789;SDS011;37287;47.554;7.844;2023-11-21T14:14:34;1.40;;;1.30;;
50789;SDS011;37287;47.554;7.844;2023-11-21T14:17:01;1.30;;;1.20;;
50789;SDS011;37287;47.554;7.844;2023-11-21T14:19:33;1.15;;;0.98;;
50789;SDS011;37287;47.554;7.844;2023-11-21T14:22:02;1.23;;;1.13;;
50789;SDS011;37287;47.554;7.844;2023-11-21T14:24:29;2.05;;;1.30;;
50789;SDS011;37287;47.554;7.844;2023-11-21T14:26:57;1.38;;;1.20;;
50789;SDS011;37287;47.554;7.844;2023-11-21T14:29:25;0.82;;;0.82;;
50789;SDS011;37287;47.554;7.844;2023-11-21T14:31:56;1.10;;;1.00;;
50789;SDS011;37287;47.554;7.844;2023-11-21T14:34:24;2.15;;;0.90;;
50789;SDS011;37287;47.554;7.844;2023-11-21T14:36:54;1.08;;;0.98;;
50789;SDS011;37287;47.554;7.844;2023-11-21T14:39:21;1.20;;;1.10;;
50789;SDS011;37287;47.554;7.844;2023-11-21T14:41:50;1.20;;;1.10;;
50789;SDS011;37287;47.554;7.844;2023-11-21T14:44:19;1.95;;;1.13;;
50789;SDS011;37287;47.554;7.844;2023-11-21T14:46:50;1.17;;;1.08;;
50789;SDS011;37287;47.554;7.844;2023-11-21T14:49:17;0.88;;;0.88;;
50789;SDS011;37287;47.554;7.844;2023-11-21T14:51:51;0.90;;;0.90;;
50789;SDS011;37287;47.554;7.844;2023-11-21T14:54:21;0.98;;;0.93;;
50789;SDS011;37287;47.554;7.844;2023-11-21T14:57:08;0.73;;;0.73;;
50789;SDS011;37287;47.554;7.844;2023-11-21T14:59:43;1.10;;;0.90;;
50789;SDS011;37287;47.554;7.844;2023-11-21T15:02:15;1.30;;;1.20;;
50789;SDS011;37287;47.554;7.844;2023-11-21T15:04:47;0.90;;;0.90;;
50789;SDS011;37287;47.554;7.844;2023-11-21T15:07:23;1.00;;;0.95;;
50789;SDS011;37287;47.554;7.844;2023-11-21T15:09:52;1.02;;;1.00;;